Time;durP1;ratioP1;P1;durP2;ratioP2;P2;SDS_P1;SDS_P2;PMS_P1;PMS_P2;Temp;Humidity;BMP_temperature;BMP_pressure;BME280_temperature;BME280_humidity;BME280_pressure;Samples;Min_cycle;Max_cycle;Signal;HPM_P1;HPM_P2
2022/08/14 00:00:48;;;;;;;7.35;4.30;;;26.60;44.70;;;;;;5023882;28;20439;-68
2022/08/14 00:03:27;;;;;;;7.45;4.65;;;26.60;44.90;;;;;;5033686;28;20152;-68
2022/08/14 00:05:54;;;;;;;7.40;4.82;;;26.60;45.00;;;;;;5020055;28;20029;-69
2022/08/14 00:08:20;;;;;;;7.50;4.97;;;26.50;45.10;;;;;;5029912;28;20059;-68
2022/08/14 00:10:47;;;;;;;7.40;5.07;;;26.50;45.10;;;;;;5017809;28;20030;-68
2022/08/14 00:13:13;;;;;;;7.55;5.13;;;26.50;45.30;;;;;;5028078;28;20179;-68
2022/08/14 00:15:43;;;;;;;10.38;5.30;;;26.40;45.30;;;;;;5026887;28;20596;-68
2022/08/14 00:18:11;;;;;;;9.43;5.07;;;26.40;45.50;;;;;;5019013;28;20227;-68
2022/08/14 00:20:40;;;;;;;8.82;5.35;;;26.40;45.50;;;;;;5027137;28;20033;-68
2022/08/14 00:23:07;;;;;;;7.75;5.63;;;26.40;45.60;;;;;;5029189;28;20463;-68
2022/08/14 00:25:33;;;;;;;7.82;5.25;;;26.40;45.80;;;;;;5028339;28;20030;-68
2022/08/14 00:27:58;;;;;;;8.40;5.30;;;26.40;45.90;;;;;;5012729;28;20052;-68
2022/08/14 00:30:24;;;;;;;8.50;5.95;;;26.30;45.90;;;;;;5033037;28;20418;-68
2022/08/14 00:32:50;;;;;;;8.38;5.60;;;26.30;46.00;;;;;;5010464;28;20033;-68
2022/08/14 00:35:15;;;;;;;7.38;5.25;;;26.30;46.10;;;;;;5027221;28;20026;-68
2022/08/14 00:37:44;;;;;;;7.00;4.90;;;26.20;46.20;;;;;;5026976;28;20032;-68
2022/08/14 00:40:13;;;;;;;7.55;5.25;;;26.20;46.40;;;;;;5013941;28;20030;-68
2022/08/14 00:42:39;;;;;;;8.15;5.35;;;26.20;46.50;;;;;;5025316;28;20176;-68
2022/08/14 00:45:07;;;;;;;8.88;5.43;;;26.10;46.50;;;;;;5035100;28;20048;-68
2022/08/14 00:47:34;;;;;;;9.73;5.07;;;26.10;46.70;;;;;;5034888;28;20079;-68
2022/08/14 00:50:01;;;;;;;8.50;5.50;;;26.10;46.70;;;;;;5034998;28;20083;-68
2022/08/14 00:52:28;;;;;;;9.25;5.28;;;26.10;46.90;;;;;;5013958;28;20072;-68
2022/08/14 00:54:55;;;;;;;9.30;5.68;;;26.10;47.00;;;;;;5029183;28;20347;-68
2022/08/14 00:57:23;;;;;;;10.65;5.25;;;26.10;47.00;;;;;;5015682;28;20080;-68
2022/08/14 00:59:50;;;;;;;8.85;5.15;;;26.10;47.10;;;;;;4997806;28;20037;-69
2022/08/14 01:02:23;;;;;;;8.88;5.53;;;26.10;47.80;;;;;;5019048;28;20393;-68
2022/08/14 01:04:51;;;;;;;7.35;5.03;;;26.00;47.30;;;;;;5035669;28;20144;-68
2022/08/14 01:07:21;;;;;;;7.80;5.80;;;26.00;47.40;;;;;;5023458;28;20026;-68
2022/08/14 01:09:53;;;;;;;7.53;5.43;;;25.90;47.40;;;;;;5027958;28;20410;-68
2022/08/14 01:12:21;;;;;;;8.55;5.68;;;25.90;47.60;;;;;;5023276;28;20046;-68
2022/08/14 01:14:50;;;;;;;8.43;5.30;;;25.90;47.60;;;;;;5026878;28;20351;-68
2022/08/14 01:17:16;;;;;;;8.45;5.57;;;25.90;47.70;;;;;;5032608;28;20029;-68
2022/08/14 01:22:26;;;;;;;8.68;5.43;;;25.80;47.90;;;;;;5021263;28;20472;-68
2022/08/14 01:24:52;;;;;;;8.23;5.70;;;25.80;47.90;;;;;;5020118;28;20056;-69
2022/08/14 01:27:20;;;;;;;10.18;5.72;;;25.80;48.00;;;;;;5006570;28;20026;-68
2022/08/14 01:29:48;;;;;;;7.53;5.47;;;25.70;48.10;;;;;;5027137;28;20080;-68
2022/08/14 01:32:17;;;;;;;9.73;5.63;;;25.70;48.20;;;;;;5019857;28;20030;-68
2022/08/14 01:34:45;;;;;;;8.77;6.07;;;25.70;48.30;;;;;;5034971;28;20072;-68
2022/08/14 01:37:11;;;;;;;10.23;6.20;;;25.70;48.40;;;;;;5035186;28;20048;-68
2022/08/14 01:39:37;;;;;;;8.63;5.50;;;25.60;48.50;;;;;;5030454;28;20022;-68
2022/08/14 01:42:05;;;;;;;7.90;5.68;;;25.60;48.60;;;;;;5027400;28;20044;-69
2022/08/14 01:44:30;;;;;;;9.15;6.05;;;25.60;48.80;;;;;;5020417;28;20022;-68
2022/08/14 01:47:11;;;;;;;9.40;5.35;;;25.60;48.90;;;;;;5023154;28;20044;-69
2022/08/14 01:49:37;;;;;;;8.27;5.17;;;25.60;49.00;;;;;;5032200;28;20113;-69
2022/08/14 01:52:03;;;;;;;8.38;5.65;;;25.50;49.00;;;;;;5023264;28;20030;-68
2022/08/14 01:54:28;;;;;;;7.55;5.60;;;25.50;49.00;;;;;;5034740;28;20033;-68
2022/08/14 01:56:55;;;;;;;8.10;5.63;;;25.50;49.10;;;;;;5027415;28;20120;-68
2022/08/14 01:59:32;;;;;;;8.25;5.90;;;25.50;49.20;;;;;;5020104;28;20060;-68
2022/08/14 02:02:06;;;;;;;8.40;6.10;;;25.40;49.80;;;;;;5013679;28;20099;-68
2022/08/14 02:04:34;;;;;;;9.05;6.10;;;25.40;49.30;;;;;;5028433;28;20041;-68
2022/08/14 02:07:01;;;;;;;8.73;6.47;;;25.40;49.40;;;;;;5034357;28;20049;-69
2022/08/14 02:09:33;;;;;;;7.95;5.72;;;25.40;49.50;;;;;;5033586;28;20044;-68
2022/08/14 02:12:00;;;;;;;9.38;6.00;;;25.30;49.50;;;;;;5017348;28;20025;-68
2022/08/14 02:14:26;;;;;;;7.97;5.53;;;25.30;49.60;;;;;;5025269;28;20084;-68
2022/08/14 02:16:51;;;;;;;9.90;6.40;;;25.30;49.70;;;;;;5030727;28;20061;-68
2022/08/14 02:19:21;;;;;;;9.00;5.90;;;25.30;49.80;;;;;;5023270;28;20026;-68
2022/08/14 02:21:49;;;;;;;8.63;6.60;;;25.30;49.80;;;;;;5006604;28;20112;-68
2022/08/14 02:24:17;;;;;;;8.93;6.03;;;25.30;49.90;;;;;;5021535;28;20037;-68
2022/08/14 02:26:48;;;;;;;10.45;6.63;;;25.20;49.80;;;;;;5013916;28;20033;-68
2022/08/14 02:29:21;;;;;;;9.82;6.40;;;25.20;49.90;;;;;;5010395;28;20034;-68
2022/08/14 02:31:51;;;;;;;8.02;6.13;;;25.20;50.00;;;;;;5012170;28;20030;-69
2022/08/14 02:34:22;;;;;;;8.70;6.50;;;25.20;50.10;;;;;;5005192;28;20022;-68
2022/08/14 02:36:50;;;;;;;8.85;6.00;;;25.10;50.10;;;;;;5040896;28;20028;-68
2022/08/14 02:39:16;;;;;;;10.00;6.80;;;25.20;50.20;;;;;;5020243;28;20030;-68
2022/08/14 02:41:42;;;;;;;10.32;6.38;;;25.10;50.20;;;;;;5020028;28;20394;-68
2022/08/14 02:44:10;;;;;;;8.80;6.28;;;25.10;50.20;;;;;;5020106;28;20171;-68
2022/08/14 02:46:43;;;;;;;8.70;6.57;;;25.10;50.30;;;;;;5019240;28;20527;-68
2022/08/14 02:49:10;;;;;;;8.65;5.95;;;25.10;51.00;;;;;;5018972;28;20029;-68
2022/08/14 02:51:37;;;;;;;11.93;6.35;;;25.10;50.40;;;;;;5018801;28;20105;-68
2022/08/14 02:54:06;;;;;;;8.52;6.00;;;25.00;50.50;;;;;;5019837;28;20037;-68
2022/08/14 02:56:31;;;;;;;8.25;5.95;;;25.00;50.50;;;;;;5029573;28;20117;-69
2022/08/14 02:59:00;;;;;;;10.30;6.35;;;25.00;51.20;;;;;;5019814;28;20057;-68
2022/08/14 03:01:27;;;;;;;8.13;6.20;;;25.00;50.70;;;;;;5018234;28;20032;-68
2022/08/14 03:03:54;;;;;;;8.88;6.22;;;25.00;50.80;;;;;;5019767;28;20037;-68
2022/08/14 03:06:24;;;;;;;8.60;6.30;;;24.90;50.90;;;;;;5018697;28;20030;-68
2022/08/14 03:08:51;;;;;;;9.15;6.40;;;24.90;50.90;;;;;;5019566;28;20033;-68
2022/08/14 03:11:17;;;;;;;10.45;6.25;;;24.90;51.00;;;;;;5019497;28;20022;-68
2022/08/14 03:13:46;;;;;;;8.85;5.95;;;24.90;51.10;;;;;;5019453;28;20121;-68
2022/08/14 03:16:14;;;;;;;8.80;6.45;;;24.90;51.30;;;;;;5019438;28;20444;-68
2022/08/14 03:18:41;;;;;;;9.20;6.00;;;24.80;51.30;;;;;;5017417;28;20030;-68
2022/08/14 03:21:12;;;;;;;9.07;6.00;;;24.80;51.40;;;;;;5018904;28;20034;-68
2022/08/14 03:23:39;;;;;;;10.63;5.95;;;24.80;51.50;;;;;;5019388;28;20030;-68
2022/08/14 03:26:08;;;;;;;9.68;6.55;;;24.80;51.60;;;;;;5020788;28;20461;-68
2022/08/14 03:28:34;;;;;;;10.98;7.10;;;24.70;51.60;;;;;;5019251;28;20026;-68
2022/08/14 03:31:00;;;;;;;9.02;6.70;;;24.70;51.70;;;;;;5020605;28;20088;-68
2022/08/14 03:33:26;;;;;;;9.07;7.00;;;24.70;51.70;;;;;;5014961;28;20101;-68
2022/08/14 03:35:52;;;;;;;9.32;6.30;;;24.70;51.80;;;;;;5035712;28;20062;-68
2022/08/14 03:38:18;;;;;;;9.35;6.18;;;24.60;51.80;;;;;;5018554;28;20033;-68
2022/08/14 03:40:45;;;;;;;9.10;6.57;;;24.60;51.90;;;;;;5034074;28;20435;-68
2022/08/14 03:43:12;;;;;;;10.13;6.60;;;24.60;52.00;;;;;;5029292;28;20029;-68
2022/08/14 03:45:39;;;;;;;8.75;5.97;;;24.60;52.10;;;;;;5029661;28;20030;-68
2022/08/14 03:48:19;;;;;;;8.52;6.72;;;24.60;52.10;;;;;;5012389;28;20030;-68
2022/08/14 03:50:46;;;;;;;10.38;7.13;;;24.60;52.20;;;;;;5036961;28;20040;-68
2022/08/14 03:53:13;;;;;;;8.40;6.20;;;24.50;52.20;;;;;;5023123;28;20033;-68
2022/08/14 03:55:40;;;;;;;9.90;6.28;;;24.50;52.30;;;;;;5017156;28;20185;-68
2022/08/14 03:58:07;;;;;;;9.35;6.60;;;24.50;52.40;;;;;;5027659;28;20485;-68
2022/08/14 04:00:35;;;;;;;9.55;7.10;;;24.50;52.40;;;;;;5029069;28;20073;-68
2022/08/14 04:03:03;;;;;;;9.85;6.85;;;24.50;52.50;;;;;;5036678;28;20359;-68
2022/08/14 04:05:29;;;;;;;9.45;6.82;;;24.40;52.50;;;;;;5036776;28;20025;-68
2022/08/14 04:07:54;;;;;;;9.10;6.90;;;24.40;52.60;;;;;;5018206;28;20463;-68
2022/08/14 04:10:20;;;;;;;11.20;7.65;;;24.40;52.60;;;;;;5024449;28;20029;-68
2022/08/14 04:12:46;;;;;;;11.93;7.35;;;24.40;52.70;;;;;;5030549;28;20064;-68
2022/08/14 04:15:13;;;;;;;9.13;6.90;;;24.40;52.70;;;;;;5016737;28;20017;-68
2022/08/14 04:17:42;;;;;;;11.55;7.50;;;24.40;52.80;;;;;;5018002;28;20034;-69
2022/08/14 04:20:08;;;;;;;10.15;7.53;;;24.40;52.90;;;;;;5017145;28;20041;-68
2022/08/14 04:22:35;;;;;;;10.57;7.38;;;24.30;53.00;;;;;;5015091;28;20037;-68
2022/08/14 04:25:01;;;;;;;10.07;6.78;;;24.30;53.00;;;;;;5033826;28;20028;-68
2022/08/14 04:27:28;;;;;;;8.65;6.97;;;24.30;53.00;;;;;;5025851;28;20351;-69
2022/08/14 04:29:56;;;;;;;9.25;6.82;;;24.30;53.20;;;;;;5031261;28;20092;-68
2022/08/14 04:32:25;;;;;;;12.18;7.35;;;24.30;53.30;;;;;;5018998;28;20380;-69
2022/08/14 04:34:51;;;;;;;10.70;7.88;;;24.20;53.30;;;;;;5036463;28;20419;-68
2022/08/14 04:45:40;;;;;;;11.07;7.63;;;24.20;53.40;;;;;;5024888;28;20025;-68
2022/08/14 04:48:11;;;;;;;10.32;6.35;;;24.20;53.40;;;;;;5022936;28;20594;-68
2022/08/14 04:50:49;;;;;;;8.77;6.82;;;24.20;53.40;;;;;;5002559;28;20057;-68
2022/08/14 04:53:17;;;;;;;19.17;7.53;;;24.20;53.50;;;;;;5032002;28;20029;-68
2022/08/14 04:55:47;;;;;;;10.60;7.15;;;24.20;53.60;;;;;;5018025;28;20064;-68
2022/08/14 04:58:17;;;;;;;9.73;6.75;;;24.20;53.80;;;;;;5034760;28;20069;-68
2022/08/14 05:00:44;;;;;;;10.02;7.10;;;24.20;54.30;;;;;;5020015;28;20068;-68
2022/08/14 05:03:09;;;;;;;10.02;7.90;;;24.30;54.60;;;;;;5035858;28;20048;-68
2022/08/14 05:05:35;;;;;;;10.30;8.00;;;24.30;54.60;;;;;;5018768;28;20030;-68
2022/08/14 05:08:11;;;;;;;11.07;7.63;;;24.20;54.50;;;;;;5030262;28;20310;-69
2022/08/14 05:10:41;;;;;;;9.32;7.03;;;24.30;54.70;;;;;;5025495;28;20036;-69
2022/08/14 05:13:08;;;;;;;9.82;7.07;;;24.20;54.60;;;;;;4997716;28;20046;-70
2022/08/14 05:15:36;;;;;;;10.50;8.10;;;24.30;54.60;;;;;;5011822;28;20040;-70
2022/08/14 05:18:08;;;;;;;9.02;6.90;;;24.20;54.50;;;;;;5019045;28;20091;-70
2022/08/14 05:20:34;;;;;;;10.60;7.35;;;24.30;54.50;;;;;;5017789;28;20029;-69
2022/08/14 05:23:00;;;;;;;9.90;7.75;;;24.30;54.40;;;;;;5032765;28;20472;-69
2022/08/14 05:25:26;;;;;;;12.13;8.20;;;24.30;54.40;;;;;;5030030;28;20452;-69
2022/08/14 05:27:52;;;;;;;11.20;8.25;;;24.30;54.50;;;;;;5028499;28;20033;-70
2022/08/14 05:30:18;;;;;;;11.40;8.18;;;24.40;54.50;;;;;;5034169;28;20021;-69
2022/08/14 05:32:44;;;;;;;10.45;8.15;;;24.40;54.40;;;;;;5029153;28;20026;-69
2022/08/14 05:35:10;;;;;;;11.23;8.20;;;24.40;54.30;;;;;;5027266;28;20029;-69
2022/08/14 05:37:38;;;;;;;12.50;8.10;;;24.40;54.30;;;;;;5018848;28;20033;-69
2022/08/14 05:40:05;;;;;;;9.60;7.63;;;24.50;54.30;;;;;;5022238;28;20084;-69
2022/08/14 05:42:30;;;;;;;11.13;8.00;;;24.50;54.20;;;;;;5004712;28;20034;-69
2022/08/14 05:44:56;;;;;;;10.32;7.95;;;24.50;54.10;;;;;;5020036;28;20040;-69
2022/08/14 05:47:23;;;;;;;11.50;8.75;;;24.60;54.20;;;;;;5022719;28;20042;-69
2022/08/14 05:49:49;;;;;;;12.13;8.73;;;24.70;53.90;;;;;;5029018;28;20022;-69
2022/08/14 05:52:14;;;;;;;14.00;8.32;;;24.70;53.80;;;;;;5021547;28;20060;-69
2022/08/14 05:54:41;;;;;;;9.90;7.45;;;24.80;53.80;;;;;;5026833;28;20049;-69
2022/08/14 05:57:06;;;;;;;10.75;8.40;;;24.80;53.70;;;;;;5008180;28;20037;-69
2022/08/14 05:59:32;;;;;;;9.93;7.90;;;24.90;53.60;;;;;;5033930;28;20033;-69
2022/08/14 06:01:57;;;;;;;9.88;7.82;;;25.00;53.60;;;;;;5013944;28;20080;-69
2022/08/14 06:04:23;;;;;;;11.35;8.35;;;25.10;53.50;;;;;;5027575;28;20037;-69
2022/08/14 06:06:49;;;;;;;11.68;8.38;;;25.10;53.20;;;;;;5023389;28;20097;-73
2022/08/14 06:09:14;;;;;;;11.80;8.18;;;25.20;53.10;;;;;;5015243;28;20076;-71
2022/08/14 06:11:40;;;;;;;10.88;8.90;;;25.40;53.10;;;;;;5018047;28;20461;-71
2022/08/14 06:14:06;;;;;;;15.75;8.18;;;25.60;52.90;;;;;;5033565;28;20052;-71
2022/08/14 06:16:31;;;;;;;10.55;7.65;;;25.80;52.60;;;;;;5019360;28;20034;-70
2022/08/14 06:18:57;;;;;;;12.00;8.98;;;26.10;52.30;;;;;;5029645;28;20105;-71
2022/08/14 06:21:22;;;;;;;9.93;8.25;;;26.30;51.90;;;;;;5020696;28;20026;-71
2022/08/14 06:23:48;;;;;;;9.27;7.25;;;26.50;51.60;;;;;;5033279;28;20029;-71
2022/08/14 06:26:14;;;;;;;10.52;7.85;;;26.60;51.40;;;;;;5033282;28;20025;-71
2022/08/14 06:28:39;;;;;;;10.73;7.93;;;26.70;51.10;;;;;;5033640;28;20040;-71
2022/08/14 06:31:05;;;;;;;11.05;7.70;;;26.70;51.00;;;;;;5027130;28;20052;-70
2022/08/14 06:33:31;;;;;;;11.05;7.88;;;26.80;50.90;;;;;;5017970;28;20039;-70
2022/08/14 06:35:57;;;;;;;10.70;8.15;;;26.80;50.80;;;;;;5031303;28;20129;-70
2022/08/14 06:38:22;;;;;;;10.93;8.13;;;26.80;50.60;;;;;;5014749;28;20115;-70
2022/08/14 06:40:50;;;;;;;10.52;7.88;;;26.90;50.60;;;;;;5003606;28;20026;-70
2022/08/14 06:43:17;;;;;;;9.88;7.97;;;27.00;50.40;;;;;;5015298;28;20355;-71
2022/08/14 06:45:44;;;;;;;11.95;8.35;;;27.20;50.20;;;;;;5004340;28;20026;-70
2022/08/14 06:48:18;;;;;;;10.35;8.23;;;27.20;49.90;;;;;;5033430;28;20355;-71
2022/08/14 06:50:45;;;;;;;10.55;8.23;;;27.40;49.90;;;;;;5026386;28;20034;-71
2022/08/14 06:53:13;;;;;;;10.05;7.93;;;27.60;49.70;;;;;;5019270;28;20033;-70
2022/08/14 06:55:41;;;;;;;12.23;8.40;;;27.70;49.60;;;;;;5005734;28;20485;-71
2022/08/14 06:58:10;;;;;;;12.07;8.23;;;27.90;49.30;;;;;;5033287;28;20034;-70
2022/08/14 07:00:36;;;;;;;10.32;8.50;;;28.10;49.10;;;;;;5021248;28;20033;-70
2022/08/14 07:05:49;;;;;;;10.10;7.78;;;28.40;48.60;;;;;;5028367;28;20463;-71
2022/08/14 07:08:22;;;;;;;10.02;7.78;;;28.50;48.30;;;;;;5026932;28;20032;-71
2022/08/14 07:10:50;;;;;;;10.63;8.13;;;28.60;48.30;;;;;;5022658;28;20022;-71
2022/08/14 07:13:17;;;;;;;11.48;8.30;;;28.70;48.10;;;;;;5022517;28;20034;-71
2022/08/14 07:15:51;;;;;;;11.48;8.38;;;28.80;47.90;;;;;;5033892;28;20143;-71
2022/08/14 07:18:26;;;;;;;10.20;7.88;;;28.90;47.90;;;;;;5022877;28;20030;-71
2022/08/14 07:20:53;;;;;;;10.05;7.72;;;28.90;47.70;;;;;;5003132;28;20034;-71
2022/08/14 07:23:20;;;;;;;10.20;7.85;;;29.10;47.70;;;;;;5007171;28;20124;-71
2022/08/14 07:25:46;;;;;;;11.25;7.88;;;29.20;47.60;;;;;;5032148;28;20030;-71
2022/08/14 07:28:16;;;;;;;11.45;8.30;;;29.30;47.30;;;;;;5013556;28;20037;-76
2022/08/14 07:30:43;;;;;;;10.07;7.85;;;29.40;47.00;;;;;;5027882;28;20091;-75
2022/08/14 07:33:10;;;;;;;11.00;8.73;;;29.40;47.00;;;;;;4997325;28;20070;-70
2022/08/14 07:35:37;;;;;;;10.68;7.75;;;29.60;46.80;;;;;;5019166;28;20030;-70
2022/08/14 07:38:04;;;;;;;11.23;7.63;;;29.70;46.70;;;;;;5020945;28;20041;-68
2022/08/14 07:40:30;;;;;;;10.77;7.90;;;29.80;46.60;;;;;;5009034;28;20156;-69
2022/08/14 07:42:56;;;;;;;10.02;7.60;;;29.80;46.40;;;;;;5016339;28;20109;-69
2022/08/14 07:45:21;;;;;;;9.98;7.95;;;30.00;46.40;;;;;;5016797;28;20117;-68
2022/08/14 07:47:47;;;;;;;11.45;7.90;;;30.10;46.30;;;;;;5015244;28;20426;-69
2022/08/14 07:50:19;;;;;;;11.45;7.63;;;30.20;46.10;;;;;;5017354;28;20406;-69
2022/08/14 07:52:47;;;;;;;9.18;7.97;;;30.30;45.90;;;;;;5009269;28;20778;-69
2022/08/14 07:55:15;;;;;;;8.35;7.13;;;30.40;45.60;;;;;;5030648;28;20152;-68
2022/08/14 07:57:42;;;;;;;13.43;7.70;;;30.50;45.50;;;;;;5030916;28;20033;-69
2022/08/14 08:00:12;;;;;;;10.30;7.22;;;30.60;45.30;;;;;;5022829;28;20034;-69
2022/08/14 08:02:40;;;;;;;10.07;7.63;;;30.70;45.30;;;;;;5029603;28;20037;-74
2022/08/14 08:05:08;;;;;;;10.18;7.30;;;30.80;45.20;;;;;;5014734;28;20034;-70
2022/08/14 08:07:34;;;;;;;10.30;7.15;;;30.90;44.90;;;;;;5019025;28;20033;-70
2022/08/14 08:10:29;;;;;;;11.07;7.53;;;31.00;44.80;;;;;;5015720;28;20450;-69
2022/08/14 08:12:52;;;;;;;11.43;7.15;;;31.10;44.70;;;;;;5027642;28;20042;-69
2022/08/14 08:15:18;;;;;;;10.38;6.47;;;31.10;44.40;;;;;;5025000;28;20029;-69
2022/08/14 08:17:44;;;;;;;9.85;6.35;;;31.20;44.40;;;;;;5036098;28;20033;-69
2022/08/14 08:20:18;;;;;;;8.73;6.75;;;31.30;44.20;;;;;;5025218;28;20444;-70
2022/08/14 08:22:45;;;;;;;10.05;6.53;;;31.40;44.00;;;;;;5020021;28;20026;-71
2022/08/14 08:25:11;;;;;;;8.40;6.45;;;31.40;44.00;;;;;;5022430;28;20061;-69
2022/08/14 08:27:37;;;;;;;8.60;6.32;;;31.50;43.90;;;;;;5035953;28;20087;-69
2022/08/14 08:30:08;;;;;;;10.52;7.65;;;31.60;43.80;;;;;;5020407;28;20022;-70
2022/08/14 08:32:39;;;;;;;8.90;6.45;;;31.70;43.80;;;;;;5035919;28;20063;-70
2022/08/14 08:35:09;;;;;;;8.52;6.30;;;31.80;43.60;;;;;;5023084;28;20034;-70
2022/08/14 08:37:36;;;;;;;9.07;5.97;;;31.80;43.50;;;;;;5019614;28;20022;-69
2022/08/14 08:40:02;;;;;;;8.27;6.15;;;32.00;43.40;;;;;;5003752;28;20042;-69
2022/08/14 08:42:27;;;;;;;8.52;6.55;;;32.00;43.20;;;;;;5024328;28;20443;-69
2022/08/14 08:44:54;;;;;;;9.80;6.18;;;32.10;43.20;;;;;;5018369;28;20038;-69
2022/08/14 08:47:20;;;;;;;9.88;6.22;;;32.20;43.00;;;;;;5031391;28;20450;-69
2022/08/14 08:49:45;;;;;;;9.52;6.25;;;32.20;42.90;;;;;;5036156;28;20052;-69
2022/08/14 08:52:11;;;;;;;9.13;6.35;;;32.30;42.80;;;;;;5032313;28;20087;-69
2022/08/14 08:54:38;;;;;;;9.05;5.63;;;32.40;42.70;;;;;;5034737;28;20028;-70
2022/08/14 08:57:11;;;;;;;8.82;5.93;;;32.40;42.60;;;;;;5021926;28;20033;-68
2022/08/14 08:59:37;;;;;;;10.02;5.80;;;32.50;42.40;;;;;;5034078;28;20343;-68
2022/08/14 09:02:04;;;;;;;8.68;6.38;;;32.50;42.30;;;;;;5035746;28;20086;-68
2022/08/14 09:04:43;;;;;;;9.07;6.20;;;32.50;42.20;;;;;;5035580;28;20458;-69
2022/08/14 09:07:09;;;;;;;8.68;6.43;;;32.60;42.00;;;;;;5024406;28;20347;-70
2022/08/14 09:09:50;;;;;;;8.65;5.57;;;32.70;42.10;;;;;;5024697;28;20335;-70
2022/08/14 09:12:16;;;;;;;;;;;32.70;42.00;;;;;;5003388;28;20108;-69
2022/08/14 09:14:42;;;;;;;8.27;5.40;;;32.80;42.00;;;;;;5005136;28;20266;-69
2022/08/14 09:17:08;;;;;;;9.38;5.93;;;32.80;41.80;;;;;;5015160;28;20017;-69
2022/08/14 09:19:36;;;;;;;9.30;6.13;;;33.00;41.70;;;;;;5030162;28;20362;-69
2022/08/14 09:22:02;;;;;;;10.00;5.57;;;33.00;41.30;;;;;;5035605;28;20033;-69
2022/08/14 09:24:28;;;;;;;8.57;5.57;;;33.10;41.20;;;;;;5002841;28;20033;-70
2022/08/14 09:26:54;;;;;;;7.60;6.00;;;33.20;41.10;;;;;;5021736;28;20048;-69
2022/08/14 09:29:20;;;;;;;8.68;6.18;;;33.30;41.00;;;;;;5035069;28;20022;-69
2022/08/14 09:31:49;;;;;;;8.13;6.28;;;33.40;40.80;;;;;;5022560;28;20438;-69
2022/08/14 09:34:42;;;;;;;8.10;5.80;;;33.50;40.70;;;;;;5013083;28;20028;-68
2022/08/14 09:37:38;;;;;;;7.65;5.60;;;33.60;40.70;;;;;;5018195;28;20033;-69
2022/08/14 09:40:28;;;;;;;7.20;5.30;;;33.70;40.50;;;;;;5016667;28;20454;-70
2022/08/14 09:43:06;;;;;;;8.63;5.50;;;33.80;40.40;;;;;;5004753;28;20041;-70
2022/08/14 09:45:43;;;;;;;8.48;5.72;;;33.90;40.20;;;;;;4996222;28;20205;-69
2022/08/14 09:48:15;;;;;;;8.98;5.72;;;33.90;39.90;;;;;;5014921;28;20026;-69
2022/08/14 09:51:00;;;;;;;7.38;5.15;;;34.00;39.60;;;;;;5028512;28;20450;-70
2022/08/14 09:53:34;;;;;;;6.72;4.88;;;34.10;39.60;;;;;;5028830;28;20363;-70
2022/08/14 09:56:01;;;;;;;7.75;6.00;;;34.10;39.50;;;;;;5011632;28;20124;-69
2022/08/14 09:58:44;;;;;;;7.72;5.50;;;34.10;39.40;;;;;;5023628;28;20022;-69
2022/08/14 10:01:15;;;;;;;6.60;5.13;;;34.20;39.20;;;;;;4996565;28;20054;-69
2022/08/14 10:03:49;;;;;;;7.93;5.15;;;34.30;39.10;;;;;;5012416;28;20545;-69
2022/08/14 10:06:23;;;;;;;8.63;5.60;;;34.40;38.90;;;;;;5029371;28;20431;-69
2022/08/14 10:08:51;;;;;;;8.65;5.00;;;34.50;38.90;;;;;;5018271;28;20473;-69
2022/08/14 10:11:36;;;;;;;7.82;4.97;;;34.60;38.80;;;;;;5021526;28;20041;-69
2022/08/14 10:14:17;;;;;;;8.52;5.40;;;34.70;38.70;;;;;;5006882;28;20138;-69
2022/08/14 10:16:49;;;;;;;8.25;5.32;;;34.70;38.50;;;;;;5002601;28;20033;-69
2022/08/14 10:19:20;;;;;;;7.82;4.60;;;34.80;38.40;;;;;;5012488;28;20036;-71
2022/08/14 10:21:56;;;;;;;;;;;34.80;38.20;;;;;;4994261;28;20358;-71
2022/08/14 10:24:29;;;;;;;7.72;4.80;;;34.80;38.30;;;;;;5024767;28;20265;-71
2022/08/14 10:26:57;;;;;;;7.88;5.00;;;34.80;38.10;;;;;;5033230;28;20458;-71
2022/08/14 10:29:50;;;;;;;6.85;4.80;;;34.90;38.10;;;;;;5025428;28;20022;-71
2022/08/14 10:32:16;;;;;;;6.95;4.47;;;35.00;37.90;;;;;;5013464;28;20128;-71
2022/08/14 10:34:42;;;;;;;7.57;4.97;;;35.00;37.70;;;;;;5023593;28;20405;-71
2022/08/14 10:37:09;;;;;;;8.07;4.63;;;35.00;37.70;;;;;;5034121;28;20344;-71
2022/08/14 10:39:36;;;;;;;6.32;4.55;;;35.10;37.70;;;;;;5016976;28;20056;-71
2022/08/14 10:42:08;;;;;;;6.28;4.63;;;35.20;37.60;;;;;;5024854;28;20026;-71
2022/08/14 10:44:37;;;;;;;7.05;4.75;;;35.20;37.30;;;;;;5010727;28;20025;-71
2022/08/14 10:47:10;;;;;;;8.80;4.47;;;35.30;37.30;;;;;;5029713;28;20087;-71
2022/08/14 10:49:38;;;;;;;6.78;4.60;;;35.30;37.30;;;;;;5033357;28;20117;-71
2022/08/14 10:52:10;;;;;;;6.85;4.70;;;35.30;37.20;;;;;;5026022;28;20128;-71
2022/08/14 10:54:40;;;;;;;7.75;4.75;;;35.40;37.20;;;;;;5011814;28;20120;-71
2022/08/14 10:57:25;;;;;;;7.95;4.65;;;35.40;36.80;;;;;;5032550;28;20135;-71
2022/08/14 11:00:00;;;;;;;7.45;4.57;;;35.50;36.70;;;;;;5011539;28;20084;-71
2022/08/14 11:02:32;;;;;;;6.50;4.63;;;35.40;36.70;;;;;;5037202;28;20033;-71
2022/08/14 11:05:12;;;;;;;7.88;4.47;;;35.50;36.70;;;;;;5023895;28;20034;-72
2022/08/14 11:08:01;;;;;;;7.13;4.80;;;35.50;36.50;;;;;;5017809;28;20026;-72
2022/08/14 11:10:44;;;;;;;6.18;4.32;;;35.60;36.50;;;;;;5011112;28;20028;-71
2022/08/14 11:13:17;;;;;;;7.20;4.63;;;35.60;36.40;;;;;;5029408;28;20081;-71
2022/08/14 11:15:45;;;;;;;7.13;4.50;;;35.60;36.50;;;;;;5016574;28;20034;-71
2022/08/14 11:18:11;;;;;;;7.40;4.25;;;35.60;36.60;;;;;;5008672;28;20021;-71
2022/08/14 11:20:38;;;;;;;6.82;4.45;;;35.60;36.30;;;;;;5036656;28;20025;-71
2022/08/14 11:23:07;;;;;;;6.88;4.53;;;35.70;36.20;;;;;;5036809;28;20104;-71
2022/08/14 11:25:36;;;;;;;6.80;4.63;;;35.70;36.00;;;;;;5028585;28;20050;-71
2022/08/14 11:28:04;;;;;;;7.47;4.88;;;35.70;36.00;;;;;;5014051;28;20363;-71
2022/08/14 11:30:29;;;;;;;7.63;4.80;;;35.70;35.90;;;;;;5003153;28;20030;-71
2022/08/14 11:32:56;;;;;;;7.50;5.07;;;35.70;36.00;;;;;;5028747;28;20072;-71
2022/08/14 11:35:25;;;;;;;6.70;4.68;;;35.70;35.80;;;;;;5030397;28;20049;-71
2022/08/14 11:38:00;;;;;;;8.02;4.80;;;35.70;35.60;;;;;;5033256;28;20030;-71
2022/08/14 11:40:29;;;;;;;7.15;4.53;;;35.70;35.50;;;;;;5030549;28;20029;-71
2022/08/14 11:42:56;;;;;;;7.10;4.45;;;35.70;35.50;;;;;;5023108;28;20116;-71
2022/08/14 11:45:27;;;;;;;6.75;4.10;;;35.60;35.20;;;;;;5030706;28;20029;-71
2022/08/14 11:47:55;;;;;;;;;;;35.50;35.20;;;;;;5035760;28;20045;-72
2022/08/14 11:50:32;;;;;;;6.82;3.72;;;35.50;35.50;;;;;;5029800;28;20270;-71
2022/08/14 11:53:01;;;;;;;8.00;4.32;;;35.40;35.30;;;;;;5037070;28;20034;-71
2022/08/14 11:55:33;;;;;;;7.07;4.70;;;35.30;35.70;;;;;;5007604;28;20428;-71
2022/08/14 11:58:02;;;;;;;6.38;4.00;;;35.30;34.90;;;;;;5034514;28;20390;-71
2022/08/14 12:00:29;;;;;;;6.57;4.18;;;35.40;34.80;;;;;;5030261;28;20044;-71
2022/08/14 12:02:57;;;;;;;6.60;4.40;;;35.40;35.00;;;;;;5036203;28;20029;-71
2022/08/14 12:05:38;;;;;;;6.47;3.92;;;35.30;34.70;;;;;;5029501;28;20026;-71
2022/08/14 12:08:08;;;;;;;6.72;4.43;;;35.30;34.80;;;;;;5025155;28;20021;-71
2022/08/14 12:10:36;;;;;;;7.00;4.28;;;35.30;34.90;;;;;;5019910;28;20045;-71
2022/08/14 12:13:15;;;;;;;6.75;4.13;;;35.30;35.10;;;;;;5032110;28;20054;-71
2022/08/14 12:15:43;;;;;;;6.70;3.92;;;35.20;34.90;;;;;;5027890;28;20025;-71
2022/08/14 12:18:10;;;;;;;8.52;4.40;;;35.20;34.90;;;;;;5032316;28;20099;-71
2022/08/14 12:20:41;;;;;;;8.35;4.47;;;35.10;34.80;;;;;;5027456;28;20047;-71
2022/08/14 12:23:22;;;;;;;6.63;4.57;;;35.00;34.80;;;;;;5031752;28;20064;-71
2022/08/14 12:25:48;;;;;;;7.00;3.83;;;34.90;34.90;;;;;;4996728;28;20121;-71
2022/08/14 12:28:15;;;;;;;6.65;3.97;;;34.90;35.00;;;;;;5016736;28;20168;-71
2022/08/14 12:30:43;;;;;;;7.97;4.22;;;34.80;34.80;;;;;;5033402;28;20026;-71
2022/08/14 12:33:24;;;;;;;6.63;4.30;;;34.70;34.80;;;;;;5012967;28;20029;-71
2022/08/14 12:35:54;;;;;;;6.60;4.47;;;34.60;35.00;;;;;;5024651;28;20033;-72
2022/08/14 12:38:41;;;;;;;8.85;4.45;;;34.60;35.00;;;;;;5026954;28;20048;-72
2022/08/14 12:41:14;;;;;;;6.70;4.40;;;34.50;35.00;;;;;;5004263;28;20033;-72
2022/08/14 12:43:52;;;;;;;7.85;4.55;;;34.50;35.10;;;;;;5003787;28;20377;-72
2022/08/14 12:46:40;;;;;;;7.03;4.38;;;34.50;35.10;;;;;;4993543;28;20018;-72
2022/08/14 12:49:15;;;;;;;9.18;4.18;;;34.40;35.20;;;;;;5027793;28;20061;-72
2022/08/14 12:51:42;;;;;;;6.20;3.95;;;34.30;35.10;;;;;;5024919;28;20399;-72
2022/08/14 12:54:19;;;;;;;7.03;4.78;;;34.20;35.20;;;;;;5017670;28;20100;-72
2022/08/14 12:56:46;;;;;;;8.50;4.72;;;34.20;35.20;;;;;;5027143;28;20359;-72
2022/08/14 12:59:13;;;;;;;7.28;4.80;;;34.10;35.30;;;;;;5014161;28;20095;-72
2022/08/14 13:01:39;;;;;;;6.82;4.22;;;34.00;35.50;;;;;;5018946;28;20022;-71
2022/08/14 13:04:13;;;;;;;7.45;4.75;;;34.00;35.60;;;;;;5020951;28;20052;-72
2022/08/14 13:06:43;;;;;;;6.20;4.00;;;33.90;35.70;;;;;;5011811;28;20029;-71
2022/08/14 13:09:10;;;;;;;6.80;4.68;;;33.80;35.70;;;;;;5031566;28;20026;-72